地図

経路データ

SID SEASON NUMBER BASIN SUBBASIN NAME ISO_TIME NATURE LAT LON WMO_WIND WMO_PRES WMO_AGENCY TRACK_TYPE DIST2LAND LANDFALL IFLAG USA_AGENCY USA_ATCF_ID USA_LAT USA_LON USA_RECORD USA_STATUS USA_WIND USA_PRES USA_SSHS USA_R34_NE USA_R34_SE USA_R34_SW USA_R34_NW USA_R50_NE USA_R50_SE USA_R50_SW USA_R50_NW USA_R64_NE USA_R64_SE USA_R64_SW USA_R64_NW USA_POCI USA_ROCI USA_RMW USA_EYE TOKYO_LAT TOKYO_LON TOKYO_GRADE TOKYO_WIND TOKYO_PRES TOKYO_R50_DIR TOKYO_R50_LONG TOKYO_R50_SHORT TOKYO_R30_DIR TOKYO_R30_LONG TOKYO_R30_SHORT TOKYO_LAND CMA_LAT CMA_LON CMA_CAT CMA_WIND CMA_PRES HKO_LAT HKO_LON HKO_CAT HKO_WIND HKO_PRES NEWDELHI_LAT NEWDELHI_LON NEWDELHI_GRADE NEWDELHI_WIND NEWDELHI_PRES NEWDELHI_CI NEWDELHI_DP NEWDELHI_POCI REUNION_LAT REUNION_LON REUNION_TYPE REUNION_WIND REUNION_PRES REUNION_TNUM REUNION_CI REUNION_RMW REUNION_R34_NE REUNION_R34_SE REUNION_R34_SW REUNION_R34_NW REUNION_R50_NE REUNION_R50_SE REUNION_R50_SW REUNION_R50_NW REUNION_R64_NE REUNION_R64_SE REUNION_R64_SW REUNION_R64_NW BOM_LAT BOM_LON BOM_TYPE BOM_WIND BOM_PRES BOM_TNUM BOM_CI BOM_RMW BOM_R34_NE BOM_R34_SE BOM_R34_SW BOM_R34_NW BOM_R50_NE BOM_R50_SE BOM_R50_SW BOM_R50_NW BOM_R64_NE BOM_R64_SE BOM_R64_SW BOM_R64_NW BOM_ROCI BOM_POCI BOM_EYE BOM_POS_METHOD BOM_PRES_METHOD NADI_LAT NADI_LON NADI_CAT NADI_WIND NADI_PRES WELLINGTON_LAT WELLINGTON_LON WELLINGTON_WIND WELLINGTON_PRES DS824_LAT DS824_LON DS824_STAGE DS824_WIND DS824_PRES TD9636_LAT TD9636_LON TD9636_STAGE TD9636_WIND TD9636_PRES TD9635_LAT TD9635_LON TD9635_WIND TD9635_PRES TD9635_ROCI NEUMANN_LAT NEUMANN_LON NEUMANN_CLASS NEUMANN_WIND NEUMANN_PRES MLC_LAT MLC_LON MLC_CLASS MLC_WIND MLC_PRES USA_GUST BOM_GUST BOM_GUST_PER REUNION_GUST REUNION_GUST_PER USA_SEAHGT USA_SEARAD_NE USA_SEARAD_SE USA_SEARAD_SW USA_SEARAD_NW STORM_SPEED STORM_DIR
1871080S15468 1871 8 SI WA NOT_NAMED 1871-03-20 18:00:00 NR -15.3000 108.200 main 840 840 __________O___ -1 -15.3000 108.200 7 5 239
1871080S15468 1871 8 SI WA NOT_NAMED 1871-03-20 21:00:00 NR -15.4173 107.997 main 852 852 __________P___ -1 -15.4173 107.997 7 5 239
1871080S15468 1871 8 SI WA NOT_NAMED 1871-03-21 00:00:00 NR -15.5376 107.785 main 864 864 __________P___ -1 -15.5376 107.785 7 5 240
1871080S15468 1871 8 SI WA NOT_NAMED 1871-03-21 03:00:00 NR -15.6641 107.556 main 888 888 __________P___ -1 -15.6641 107.556 7 5 241
1871080S15468 1871 8 SI WA NOT_NAMED 1871-03-21 06:00:00 NR -15.8000 107.300 main 903 903 __________O___ -1 -15.8000 107.300 7 6 242
1871080S15468 1871 8 SI WA NOT_NAMED 1871-03-21 09:00:00 NR -15.9484 107.012 main 919 919 __________P___ -1 -15.9484 107.012 7 7 242
1871080S15468 1871 8 SI WA NOT_NAMED 1871-03-21 12:00:00 NR -16.1124 106.695 main 947 947 __________P___ -1 -16.1124 106.695 7 7 241
1871080S15468 1871 8 SI WA NOT_NAMED 1871-03-21 15:00:00 NR -16.2952 106.355 main 975 975 __________P___ -1 -16.2952 106.355 7 8 240
1871080S15468 1871 8 SI WA NOT_NAMED 1871-03-21 18:00:00 NR -16.5000 106.000 main 1004 1004 __________O___ -1 -16.5000 106.000 7 8 237
1871080S15468 1871 8 SI WA NOT_NAMED 1871-03-21 21:00:00 NR -16.7406 105.631 main 1035 1035 __________P___ -1 -16.7406 105.631 7 9 235
1871080S15468 1871 8 SI WA NOT_NAMED 1871-03-22 00:00:00 NR -17.0000 105.250 main 1063 1063 __________P___ -1 -17.0000 105.250 7 9 235
1871080S15468 1871 8 SI WA NOT_NAMED 1871-03-22 03:00:00 NR -17.2594 104.869 main 1082 1082 __________P___ -1 -17.2594 104.869 7 9 235
1871080S15468 1871 8 SI WA NOT_NAMED 1871-03-22 06:00:00 NR -17.5000 104.500 main 1108 1108 __________O___ -1 -17.5000 104.500 7 8 238
1871080S15468 1871 8 SI WA NOT_NAMED 1871-03-22 09:00:00 NR -17.6923 104.156 main 1123 1123 __________P___ -1 -17.6923 104.156 7 7 240
1871080S15468 1871 8 SI WA NOT_NAMED 1871-03-22 12:00:00 NR -17.8647 103.827 main 1148 1148 __________P___ -1 -17.8647 103.827 7 7 241
1871080S15468 1871 8 SI WA NOT_NAMED 1871-03-22 15:00:00 NR -18.0298 103.509 main 1171 1166 __________P___ -1 -18.0298 103.509 7 7 241
1871080S15468 1871 8 SI WA NOT_NAMED 1871-03-22 18:00:00 NR -18.2000 103.200 main 1189 1189 __________O___ -1 -18.2000 103.200 7 7 239
1871080S15468 1871 8 SI WA NOT_NAMED 1871-03-22 21:00:00 NR -18.3849 102.896 main 1208 1208 __________P___ -1 -18.3849 102.896 7 7 236
1871080S15468 1871 8 SI WA NOT_NAMED 1871-03-23 00:00:00 NR -18.5829 102.596 main 1228 1228 __________P___ -1 -18.5829 102.596 7 7 235
1871080S15468 1871 8 SI WA NOT_NAMED 1871-03-23 03:00:00 NR -18.7894 102.298 main 1249 1249 __________P___ -1 -18.7894 102.298 7 7 233
1871080S15468 1871 8 SI WA NOT_NAMED 1871-03-23 06:00:00 NR -19.0000 102.000 main 1270 __________O___ -1 -19.0000 102.000 7 7 233

IBTrACS Databaseについて

本データベースは、米国NOAAが公開する1842年以降の世界の熱帯低気圧のベストトラックデータアーカイブInternational Best Track Archive for Climate Stewardship (IBTrACS)を、ウェブで閲覧しやすい形式に変換したものです。

最終更新日:2021-10-19